SIA326 WSSS-EDDF
Flight info
| Callsign | SIA326 |
|---|---|
| Flight time | N/A |
| Altitude | 34000 |
| Route | AROSO5B AROSO Y513 KALIL Y501 RINBA Y503 VPL P628 KAGUL/N0505F360 P628 RK G202 ZB L750 GODSI/N0500F380 L750 RANAH B449 ETRAP B447 KRS B143 TUNEK A909 RODAR M11 REBLO UM11 CRM UL746 INB/N0497F400 UL746 ODERO DCT OPT DCT IRLOX DCT BUDOP DCT MAREG DCT KOVEL DCT DITIS DCT RAPET T170 VAGAB/N0395F240 T170 GAPLA T178 KERAX KERAX5A |
| Aircraft | A388/J-SADE2E3FGHIJ3J4J5M1RWXY/LB1D1 |
Departure
| Time | 2026-05-04 05:06 |
|---|---|
| Airport | Singapore Changi Airport (WSSS) |
Arrival
| Time | N/A |
|---|---|
| Airport | Frankfurt Main Airport (EDDF) |
| Time | Latitude | Longitude | Altitude | Speed | Heading |
|---|---|---|---|---|---|
| 2026-05-04 04:33 | 1.35426 | 103.98430 | 35 ft | 0 kts | 67° |
| 2026-05-04 04:50 | 1.35421 | 103.98418 | 34 ft | 4 kts | 67° |
| 2026-05-04 04:50 | 1.35410 | 103.98393 | 35 ft | 4 kts | 67° |
| 2026-05-04 04:50 | 1.35402 | 103.98373 | 34 ft | 4 kts | 66° |
| 2026-05-04 04:50 | 1.35390 | 103.98351 | 33 ft | 4 kts | 49° |
| 2026-05-04 04:51 | 1.35372 | 103.98338 | 32 ft | 2 kts | 22° |
| 2026-05-04 04:51 | 1.35350 | 103.98329 | 33 ft | 4 kts | 22° |
| 2026-05-04 04:51 | 1.35326 | 103.98319 | 32 ft | 4 kts | 22° |
| 2026-05-04 04:51 | 1.35301 | 103.98308 | 33 ft | 4 kts | 22° |
| 2026-05-04 04:52 | 1.35276 | 103.98298 | 34 ft | 4 kts | 23° |
| 2026-05-04 04:52 | 1.35256 | 103.98290 | 34 ft | 0 kts | 23° |
| 2026-05-04 04:55 | 1.35260 | 103.98291 | 35 ft | 2 kts | 23° |
| 2026-05-04 04:55 | 1.35290 | 103.98304 | 35 ft | 6 kts | 23° |
| 2026-05-04 04:55 | 1.35339 | 103.98313 | 35 ft | 7 kts | 340° |
| 2026-05-04 04:56 | 1.35398 | 103.98291 | 35 ft | 9 kts | 341° |
| 2026-05-04 04:56 | 1.35452 | 103.98278 | 35 ft | 9 kts | 2° |
| 2026-05-04 04:56 | 1.35521 | 103.98301 | 35 ft | 12 kts | 24° |
| 2026-05-04 04:56 | 1.35606 | 103.98338 | 35 ft | 15 kts | 22° |
| 2026-05-04 04:57 | 1.35707 | 103.98381 | 35 ft | 17 kts | 22° |
| 2026-05-04 04:57 | 1.35819 | 103.98428 | 35 ft | 19 kts | 22° |
| 2026-05-04 04:57 | 1.35943 | 103.98480 | 35 ft | 20 kts | 23° |
| 2026-05-04 04:57 | 1.36075 | 103.98536 | 35 ft | 21 kts | 22° |
| 2026-05-04 04:58 | 1.36215 | 103.98594 | 35 ft | 22 kts | 23° |
| 2026-05-04 04:58 | 1.36358 | 103.98655 | 35 ft | 23 kts | 23° |
| 2026-05-04 04:58 | 1.36457 | 103.98697 | 35 ft | 23 kts | 23° |
| 2026-05-04 04:58 | 1.36608 | 103.98760 | 35 ft | 24 kts | 22° |
| 2026-05-04 04:59 | 1.36778 | 103.98832 | 35 ft | 16 kts | 23° |
| 2026-05-04 04:59 | 1.36844 | 103.98860 | 35 ft | 16 kts | 22° |
| 2026-05-04 04:59 | 1.36945 | 103.98902 | 35 ft | 7 kts | 23° |
| 2026-05-04 04:59 | 1.36973 | 103.98933 | 35 ft | 6 kts | 85° |
| 2026-05-04 05:00 | 1.36968 | 103.98960 | 35 ft | 7 kts | 116° |
| 2026-05-04 05:00 | 1.36945 | 103.99009 | 35 ft | 9 kts | 114° |
| 2026-05-04 05:00 | 1.36889 | 103.99140 | 35 ft | 12 kts | 113° |
| 2026-05-04 05:01 | 1.36854 | 103.99221 | 35 ft | 13 kts | 113° |
| 2026-05-04 05:01 | 1.36817 | 103.99307 | 35 ft | 14 kts | 113° |
| 2026-05-04 05:01 | 1.36778 | 103.99398 | 35 ft | 14 kts | 113° |
| 2026-05-04 05:01 | 1.36738 | 103.99491 | 35 ft | 15 kts | 113° |
| 2026-05-04 05:02 | 1.36697 | 103.99588 | 35 ft | 15 kts | 113° |
| 2026-05-04 05:02 | 1.36655 | 103.99686 | 35 ft | 15 kts | 113° |
| 2026-05-04 05:02 | 1.36620 | 103.99767 | 35 ft | 8 kts | 113° |
| 2026-05-04 05:02 | 1.36598 | 103.99819 | 35 ft | 8 kts | 114° |
| 2026-05-04 05:03 | 1.36568 | 103.99842 | 35 ft | 6 kts | 169° |
| 2026-05-04 05:03 | 1.36525 | 103.99841 | 35 ft | 7 kts | 197° |
| 2026-05-04 05:04 | 1.36398 | 103.99830 | 35 ft | 7 kts | 126° |
| 2026-05-04 05:04 | 1.36364 | 103.99867 | 35 ft | 8 kts | 149° |
| 2026-05-04 05:04 | 1.36312 | 103.99882 | 35 ft | 8 kts | 176° |
| 2026-05-04 05:06 | 1.34798 | 103.99310 | 35 ft | 155 kts | 202° |
| 2026-05-04 05:06 | 1.33710 | 103.98851 | 144 ft | 177 kts | 200° |
| 2026-05-04 05:06 | 1.32579 | 103.98391 | 624 ft | 177 kts | 201° |
| 2026-05-04 05:07 | 1.31418 | 103.97915 | 1008 ft | 182 kts | 202° |
| 2026-05-04 05:07 | 1.30240 | 103.97411 | 1442 ft | 184 kts | 203° |
| 2026-05-04 05:07 | 1.29059 | 103.96899 | 1782 ft | 191 kts | 204° |
| 2026-05-04 05:09 | 1.17732 | 103.98990 | 3878 ft | 272 kts | 138° |
| 2026-05-04 05:09 | 1.16475 | 104.00414 | 4453 ft | 275 kts | 117° |
| 2026-05-04 05:10 | 1.15956 | 104.02242 | 5069 ft | 277 kts | 91° |
| 2026-05-04 05:10 | 1.16225 | 104.03910 | 5576 ft | 279 kts | 67° |
| 2026-05-04 05:10 | 1.17255 | 104.05541 | 6162 ft | 280 kts | 50° |
| 2026-05-04 05:10 | 1.18531 | 104.07034 | 6735 ft | 283 kts | 48° |
| 2026-05-04 05:11 | 1.19900 | 104.08452 | 7278 ft | 285 kts | 39° |
| 2026-05-04 05:11 | 1.21496 | 104.09585 | 7821 ft | 287 kts | 29° |
| 2026-05-04 05:11 | 1.23268 | 104.10522 | 8355 ft | 289 kts | 28° |
| 2026-05-04 05:11 | 1.25041 | 104.11497 | 8892 ft | 292 kts | 29° |
| 2026-05-04 05:12 | 1.26890 | 104.12338 | 9416 ft | 294 kts | 12° |
| 2026-05-04 05:12 | 1.28921 | 104.12388 | 9932 ft | 296 kts | 347° |
| 2026-05-04 05:12 | 1.30826 | 104.11578 | 10237 ft | 305 kts | 324° |
| 2026-05-04 05:12 | 1.32502 | 104.10195 | 10374 ft | 320 kts | 317° |
| 2026-05-04 05:13 | 1.34179 | 104.08654 | 10496 ft | 335 kts | 317° |
| 2026-05-04 05:13 | 1.35941 | 104.07056 | 10662 ft | 348 kts | 318° |
| 2026-05-04 05:13 | 1.37770 | 104.05449 | 11070 ft | 351 kts | 319° |
| 2026-05-04 05:13 | 1.39634 | 104.03853 | 11525 ft | 355 kts | 321° |
| 2026-05-04 05:14 | 1.41684 | 104.02461 | 12041 ft | 357 kts | 332° |
| 2026-05-04 05:14 | 1.43946 | 104.01428 | 12522 ft | 359 kts | 341° |
| 2026-05-04 05:14 | 1.46341 | 104.00673 | 12969 ft | 362 kts | 343° |
| 2026-05-04 05:14 | 1.48758 | 103.99905 | 13439 ft | 365 kts | 343° |
| 2026-05-04 05:15 | 1.51155 | 103.99127 | 13862 ft | 368 kts | 342° |
| 2026-05-04 05:15 | 1.53594 | 103.98332 | 14264 ft | 370 kts | 343° |
| 2026-05-04 05:15 | 1.56049 | 103.97534 | 14698 ft | 373 kts | 343° |
| 2026-05-04 05:15 | 1.58528 | 103.96729 | 15091 ft | 375 kts | 343° |
| 2026-05-04 05:16 | 1.61023 | 103.95921 | 15485 ft | 378 kts | 343° |
| 2026-05-04 05:16 | 1.63534 | 103.95107 | 15874 ft | 381 kts | 343° |
| 2026-05-04 05:16 | 1.66063 | 103.94288 | 16282 ft | 383 kts | 343° |
| 2026-05-04 05:16 | 1.68589 | 103.93471 | 16684 ft | 386 kts | 343° |
| 2026-05-04 05:17 | 1.71155 | 103.92639 | 17070 ft | 389 kts | 343° |
| 2026-05-04 05:17 | 1.73706 | 103.91711 | 17433 ft | 393 kts | 335° |
| 2026-05-04 05:17 | 1.76018 | 103.90238 | 17828 ft | 398 kts | 321° |
| 2026-05-04 05:17 | 1.77946 | 103.88232 | 18181 ft | 403 kts | 308° |
| 2026-05-04 05:18 | 1.79638 | 103.85986 | 18491 ft | 405 kts | 308° |
| 2026-05-04 05:18 | 1.81357 | 103.83748 | 18848 ft | 406 kts | 309° |
| 2026-05-04 05:18 | 1.83087 | 103.81512 | 19183 ft | 408 kts | 309° |
| 2026-05-04 05:18 | 1.84830 | 103.79261 | 19482 ft | 410 kts | 308° |
| 2026-05-04 05:19 | 1.86559 | 103.77027 | 19787 ft | 413 kts | 309° |
| 2026-05-04 05:19 | 1.88321 | 103.74749 | 20096 ft | 415 kts | 308° |
| 2026-05-04 05:19 | 1.90089 | 103.72461 | 20412 ft | 416 kts | 308° |
| 2026-05-04 05:19 | 1.91852 | 103.70174 | 20723 ft | 418 kts | 308° |
| 2026-05-04 05:20 | 1.93631 | 103.67862 | 21013 ft | 420 kts | 308° |
| 2026-05-04 05:20 | 1.95418 | 103.65537 | 21313 ft | 422 kts | 308° |
| 2026-05-04 05:20 | 1.97212 | 103.63204 | 21615 ft | 424 kts | 308° |
| 2026-05-04 05:20 | 1.99015 | 103.60860 | 21913 ft | 426 kts | 308° |
| 2026-05-04 05:21 | 2.00823 | 103.58510 | 22187 ft | 428 kts | 308° |
| 2026-05-04 05:21 | 2.02641 | 103.56146 | 22482 ft | 430 kts | 308° |
| 2026-05-04 05:21 | 2.04467 | 103.53773 | 22789 ft | 431 kts | 308° |
| 2026-05-04 05:21 | 2.06301 | 103.51388 | 23062 ft | 433 kts | 308° |
| 2026-05-04 05:22 | 2.08145 | 103.48991 | 23334 ft | 435 kts | 308° |
| 2026-05-04 05:22 | 2.09998 | 103.46582 | 23542 ft | 439 kts | 308° |
| 2026-05-04 05:22 | 2.11861 | 103.44160 | 23786 ft | 440 kts | 308° |
| 2026-05-04 05:22 | 2.13584 | 103.41647 | 24036 ft | 441 kts | 300° |
| 2026-05-04 05:23 | 2.14962 | 103.38906 | 24257 ft | 443 kts | 292° |
| 2026-05-04 05:23 | 2.15966 | 103.36029 | 24488 ft | 445 kts | 285° |
| 2026-05-04 05:23 | 2.16805 | 103.33056 | 24704 ft | 446 kts | 286° |
| 2026-05-04 05:23 | 2.17678 | 103.30066 | 24960 ft | 447 kts | 286° |
| 2026-05-04 05:24 | 2.18558 | 103.27079 | 25165 ft | 449 kts | 286° |
| 2026-05-04 05:24 | 2.19443 | 103.24076 | 25392 ft | 450 kts | 286° |
| 2026-05-04 05:24 | 2.20329 | 103.21062 | 25631 ft | 452 kts | 286° |
| 2026-05-04 05:24 | 2.21216 | 103.18037 | 25873 ft | 453 kts | 286° |
| 2026-05-04 05:25 | 2.22103 | 103.15009 | 26111 ft | 455 kts | 286° |
| 2026-05-04 05:25 | 2.22992 | 103.11971 | 26345 ft | 457 kts | 286° |
| 2026-05-04 05:25 | 2.23887 | 103.08915 | 26588 ft | 458 kts | 286° |
| 2026-05-04 05:25 | 2.24783 | 103.05856 | 26844 ft | 459 kts | 286° |
| 2026-05-04 05:26 | 2.25682 | 103.02783 | 27086 ft | 461 kts | 286° |
| 2026-05-04 05:26 | 2.26585 | 102.99697 | 27339 ft | 463 kts | 286° |
| 2026-05-04 05:26 | 2.27487 | 102.96613 | 27601 ft | 464 kts | 286° |
| 2026-05-04 05:26 | 2.28397 | 102.93505 | 27855 ft | 466 kts | 286° |
| 2026-05-04 05:27 | 2.29307 | 102.90394 | 28128 ft | 468 kts | 286° |
| 2026-05-04 05:28 | 2.35781 | 102.68293 | 30165 ft | 480 kts | 286° |
| 2026-05-04 05:29 | 2.36719 | 102.65084 | 30454 ft | 482 kts | 286° |
| 2026-05-04 05:29 | 2.37660 | 102.61862 | 30727 ft | 483 kts | 286° |
| 2026-05-04 05:29 | 2.38604 | 102.58627 | 30998 ft | 485 kts | 286° |
| 2026-05-04 05:29 | 2.39553 | 102.55378 | 31277 ft | 487 kts | 287° |
| 2026-05-04 05:31 | 2.47351 | 102.32771 | 33099 ft | 500 kts | 308° |
| 2026-05-04 05:31 | 2.49691 | 102.30205 | 33355 ft | 500 kts | 320° |
| 2026-05-04 05:32 | 2.52415 | 102.28037 | 33621 ft | 501 kts | 323° |
| 2026-05-04 05:32 | 2.55170 | 102.25891 | 33872 ft | 503 kts | 323° |
| 2026-05-04 05:33 | 2.63545 | 102.19309 | 33905 ft | 511 kts | 323° |
| 2026-05-04 05:33 | 2.69118 | 102.14932 | 33897 ft | 509 kts | 323° |
| 2026-05-04 05:34 | 2.74659 | 102.10582 | 33896 ft | 510 kts | 323° |
| 2026-05-04 05:34 | 2.80243 | 102.06198 | 33895 ft | 509 kts | 323° |
| 2026-05-04 05:35 | 2.85821 | 102.01819 | 33891 ft | 509 kts | 323° |
| 2026-05-04 05:35 | 2.91399 | 101.97439 | 33891 ft | 510 kts | 323° |
| 2026-05-04 05:36 | 2.96976 | 101.93058 | 33892 ft | 510 kts | 323° |
| 2026-05-04 05:36 | 3.02559 | 101.88673 | 33883 ft | 511 kts | 323° |
| 2026-05-04 05:37 | 3.08123 | 101.84302 | 33912 ft | 512 kts | 322° |
| 2026-05-04 05:37 | 3.13733 | 101.79895 | 33923 ft | 513 kts | 322° |
| 2026-05-04 05:38 | 3.22158 | 101.73275 | 33944 ft | 514 kts | 322° |
| 2026-05-04 05:38 | 3.27788 | 101.68849 | 33931 ft | 515 kts | 323° |
| 2026-05-04 05:39 | 3.36769 | 101.63052 | 33941 ft | 513 kts | 336° |
| 2026-05-04 05:40 | 3.46554 | 101.58723 | 33930 ft | 513 kts | 336° |
| 2026-05-04 05:40 | 3.53063 | 101.55819 | 33929 ft | 513 kts | 336° |
| 2026-05-04 05:41 | 3.59583 | 101.52917 | 33932 ft | 512 kts | 336° |
| 2026-05-04 05:41 | 3.66099 | 101.50019 | 33931 ft | 512 kts | 336° |
| 2026-05-04 05:42 | 3.72546 | 101.47150 | 33930 ft | 512 kts | 336° |
| 2026-05-04 05:42 | 3.79055 | 101.44253 | 33915 ft | 512 kts | 336° |
| 2026-05-04 05:43 | 3.85586 | 101.41346 | 33927 ft | 514 kts | 336° |
| 2026-05-04 05:45 | 4.11763 | 101.29702 | 33921 ft | 514 kts | 336° |
| 2026-05-04 05:47 | 4.36835 | 101.18541 | 33926 ft | 516 kts | 336° |
| 2026-05-04 05:47 | 4.43357 | 101.15636 | 33919 ft | 516 kts | 336° |
| 2026-05-04 05:48 | 4.49921 | 101.12712 | 33916 ft | 516 kts | 337° |
| 2026-05-04 05:48 | 4.56468 | 101.09795 | 33935 ft | 515 kts | 337° |
| 2026-05-04 05:49 | 4.63025 | 101.06930 | 33922 ft | 513 kts | 338° |
| 2026-05-04 05:49 | 4.69592 | 101.04119 | 33922 ft | 512 kts | 338° |
| 2026-05-04 05:51 | 4.95740 | 100.92852 | 33931 ft | 511 kts | 338° |
| 2026-05-04 05:52 | 5.02236 | 100.90048 | 33933 ft | 511 kts | 338° |
| 2026-05-04 05:52 | 5.08767 | 100.87225 | 33936 ft | 511 kts | 338° |
| 2026-05-04 05:54 | 5.34831 | 100.75672 | 33925 ft | 514 kts | 330° |
| 2026-05-04 05:55 | 5.40568 | 100.71382 | 33923 ft | 516 kts | 317° |
| 2026-05-04 05:55 | 5.45624 | 100.66250 | 33929 ft | 517 kts | 315° |
| 2026-05-04 05:56 | 5.50644 | 100.61149 | 33945 ft | 517 kts | 315° |
| 2026-05-04 05:56 | 5.55697 | 100.56007 | 33953 ft | 516 kts | 315° |
| 2026-05-04 05:57 | 5.60721 | 100.50886 | 33957 ft | 514 kts | 315° |
| 2026-05-04 05:57 | 5.65720 | 100.45790 | 33928 ft | 512 kts | 315° |
| 2026-05-04 05:58 | 5.70713 | 100.40696 | 33919 ft | 510 kts | 314° |
| 2026-05-04 05:58 | 5.75675 | 100.35633 | 33908 ft | 509 kts | 314° |
| 2026-05-04 05:59 | 5.80637 | 100.30569 | 33892 ft | 508 kts | 315° |
| 2026-05-04 05:59 | 5.85600 | 100.25503 | 33887 ft | 508 kts | 315° |
| 2026-05-04 06:00 | 5.90559 | 100.20439 | 33890 ft | 509 kts | 314° |
| 2026-05-04 06:00 | 5.95480 | 100.15414 | 33927 ft | 507 kts | 314° |
| 2026-05-04 06:01 | 6.00420 | 100.10365 | 33913 ft | 506 kts | 315° |
| 2026-05-04 06:03 | 6.20151 | 99.90195 | 33900 ft | 505 kts | 315° |
| 2026-05-04 06:05 | 6.36281 | 99.71689 | 33925 ft | 507 kts | 296° |
| 2026-05-04 06:05 | 6.38928 | 99.65127 | 33943 ft | 507 kts | 290° |
| 2026-05-04 06:06 | 6.41400 | 99.58487 | 33942 ft | 508 kts | 290° |
| 2026-05-04 06:06 | 6.43882 | 99.51835 | 33934 ft | 508 kts | 290° |
| 2026-05-04 06:07 | 6.46358 | 99.45175 | 33918 ft | 508 kts | 290° |
| 2026-05-04 06:07 | 6.48836 | 99.38501 | 33889 ft | 510 kts | 290° |
| 2026-05-04 06:08 | 6.51303 | 99.31854 | 33900 ft | 512 kts | 290° |
| 2026-05-04 06:08 | 6.53793 | 99.25142 | 33913 ft | 513 kts | 290° |
| 2026-05-04 06:09 | 6.56291 | 99.18406 | 33919 ft | 514 kts | 290° |
| 2026-05-04 06:11 | 6.66278 | 98.91442 | 33915 ft | 516 kts | 290° |
| 2026-05-04 06:13 | 6.76272 | 98.64406 | 33915 ft | 514 kts | 290° |
| 2026-05-04 06:14 | 6.84914 | 98.40987 | 33906 ft | 507 kts | 290° |
| 2026-05-04 06:15 | 6.87365 | 98.34340 | 33891 ft | 506 kts | 290° |
| 2026-05-04 06:15 | 6.89794 | 98.27747 | 33867 ft | 506 kts | 290° |
| 2026-05-04 06:16 | 6.92239 | 98.21107 | 33866 ft | 506 kts | 290° |
| 2026-05-04 06:16 | 6.94687 | 98.14456 | 33873 ft | 507 kts | 290° |
| 2026-05-04 06:17 | 6.97138 | 98.07794 | 33888 ft | 508 kts | 290° |
| 2026-05-04 06:17 | 7.00190 | 98.01399 | 33896 ft | 509 kts | 305° |
| 2026-05-04 06:18 | 7.05058 | 97.96252 | 33901 ft | 510 kts | 323° |
| 2026-05-04 06:20 | 7.28008 | 97.79276 | 33917 ft | 514 kts | 324° |
| 2026-05-04 06:21 | 7.42413 | 97.68602 | 33914 ft | 513 kts | 324° |
| 2026-05-04 06:22 | 7.48161 | 97.64340 | 33911 ft | 513 kts | 324° |
| 2026-05-04 06:25 | 7.88336 | 97.34550 | 33901 ft | 513 kts | 324° |
| 2026-05-04 06:26 | 7.94095 | 97.30278 | 33900 ft | 513 kts | 324° |
| 2026-05-04 06:26 | 7.99852 | 97.26005 | 33901 ft | 513 kts | 324° |
| 2026-05-04 06:27 | 8.11301 | 97.12446 | 33896 ft | 514 kts | 301° |
| 2026-05-04 06:28 | 8.15012 | 97.06288 | 33901 ft | 514 kts | 301° |
| 2026-05-04 06:28 | 8.18722 | 97.00135 | 33900 ft | 514 kts | 301° |
| 2026-05-04 06:29 | 8.22430 | 96.93966 | 33900 ft | 514 kts | 301° |
| 2026-05-04 06:29 | 8.26136 | 96.87796 | 33899 ft | 514 kts | 301° |
| 2026-05-04 06:30 | 8.29842 | 96.81622 | 33889 ft | 514 kts | 301° |
| 2026-05-04 06:30 | 8.33554 | 96.75437 | 33895 ft | 514 kts | 301° |
| 2026-05-04 06:31 | 8.37260 | 96.69258 | 33898 ft | 515 kts | 301° |
| 2026-05-04 06:31 | 8.40970 | 96.63071 | 33899 ft | 515 kts | 301° |
| 2026-05-04 06:33 | 8.55804 | 96.38299 | 33899 ft | 515 kts | 301° |
| 2026-05-04 06:34 | 8.58885 | 96.33149 | 33900 ft | 515 kts | 301° |
| 2026-05-04 06:34 | 8.62589 | 96.26955 | 33899 ft | 515 kts | 301° |
| 2026-05-04 06:36 | 8.77392 | 96.02170 | 33904 ft | 514 kts | 301° |
| 2026-05-04 06:37 | 8.81083 | 95.95975 | 33901 ft | 514 kts | 301° |
| 2026-05-04 06:37 | 8.84768 | 95.89787 | 33902 ft | 513 kts | 301° |
| 2026-05-04 06:38 | 8.88449 | 95.83604 | 33896 ft | 513 kts | 301° |
| 2026-05-04 06:40 | 9.03135 | 95.58906 | 33887 ft | 513 kts | 301° |
| 2026-05-04 06:40 | 9.06816 | 95.52708 | 33916 ft | 513 kts | 301° |
| 2026-05-04 06:41 | 9.10489 | 95.46519 | 33905 ft | 513 kts | 301° |
| 2026-05-04 06:41 | 9.14136 | 95.40373 | 33906 ft | 512 kts | 301° |
| 2026-05-04 06:42 | 9.17801 | 95.34193 | 33893 ft | 512 kts | 301° |
| 2026-05-04 06:44 | 9.32404 | 95.09537 | 33894 ft | 509 kts | 301° |
| 2026-05-04 06:44 | 9.36040 | 95.03392 | 33887 ft | 509 kts | 301° |
| 2026-05-04 06:45 | 9.39675 | 94.97244 | 33887 ft | 509 kts | 301° |
| 2026-05-04 06:45 | 9.43305 | 94.91100 | 33876 ft | 510 kts | 301° |
| 2026-05-04 06:46 | 9.46942 | 94.84943 | 33898 ft | 509 kts | 301° |
| 2026-05-04 06:46 | 9.50556 | 94.78821 | 33894 ft | 510 kts | 301° |
| 2026-05-04 06:48 | 9.65120 | 94.54121 | 33911 ft | 510 kts | 301° |
| 2026-05-04 06:50 | 9.83194 | 94.32443 | 33884 ft | 508 kts | 320° |
| 2026-05-04 06:51 | 9.88577 | 94.27795 | 33890 ft | 508 kts | 320° |
| 2026-05-04 06:51 | 9.93966 | 94.23148 | 33889 ft | 508 kts | 320° |
| 2026-05-04 06:52 | 9.99354 | 94.18505 | 33900 ft | 509 kts | 320° |
| 2026-05-04 06:52 | 10.04767 | 94.13838 | 33885 ft | 511 kts | 320° |
| 2026-05-04 06:53 | 10.10182 | 94.09167 | 33901 ft | 512 kts | 320° |
| 2026-05-04 06:53 | 10.15578 | 94.04510 | 33902 ft | 513 kts | 320° |
| 2026-05-04 06:54 | 10.21012 | 93.99819 | 33938 ft | 512 kts | 319° |
| 2026-05-04 06:54 | 10.26423 | 93.95145 | 33931 ft | 511 kts | 319° |
| 2026-05-04 06:55 | 10.31827 | 93.90475 | 33915 ft | 510 kts | 319° |
| 2026-05-04 06:55 | 10.37222 | 93.85811 | 33904 ft | 508 kts | 319° |
| 2026-05-04 06:57 | 10.58755 | 93.67172 | 33883 ft | 510 kts | 319° |
| 2026-05-04 06:58 | 10.64169 | 93.62480 | 33887 ft | 512 kts | 319° |
| 2026-05-04 06:58 | 10.69553 | 93.57812 | 33889 ft | 514 kts | 319° |
| 2026-05-04 06:59 | 10.75001 | 93.53085 | 33916 ft | 514 kts | 319° |
| 2026-05-04 06:59 | 10.80456 | 93.48352 | 33908 ft | 516 kts | 319° |
| 2026-05-04 07:01 | 10.99475 | 93.31826 | 33902 ft | 501 kts | 319° |
| 2026-05-04 07:01 | 11.02123 | 93.29524 | 33900 ft | 500 kts | 319° |
| 2026-05-04 07:02 | 11.07416 | 93.24918 | 33901 ft | 501 kts | 319° |
| 2026-05-04 07:02 | 11.12688 | 93.20328 | 33897 ft | 501 kts | 319° |
| 2026-05-04 07:03 | 11.17994 | 93.15707 | 33898 ft | 502 kts | 319° |
| 2026-05-04 07:03 | 11.23305 | 93.11080 | 33898 ft | 502 kts | 319° |
| 2026-05-04 07:04 | 11.28591 | 93.06472 | 33897 ft | 502 kts | 319° |
| 2026-05-04 07:04 | 11.33903 | 93.01840 | 33860 ft | 504 kts | 317° |
| 2026-05-04 07:05 | 11.39240 | 92.97180 | 33879 ft | 506 kts | 317° |
| 2026-05-04 07:05 | 11.44564 | 92.92532 | 33891 ft | 508 kts | 317° |
| 2026-05-04 07:06 | 11.52624 | 92.85491 | 33899 ft | 509 kts | 317° |
| 2026-05-04 07:07 | 11.58013 | 92.80779 | 33904 ft | 510 kts | 317° |
| 2026-05-04 07:09 | 11.77974 | 92.60476 | 33925 ft | 504 kts | 311° |
| 2026-05-04 07:09 | 11.82752 | 92.55255 | 33913 ft | 503 kts | 311° |
| 2026-05-04 07:10 | 11.87515 | 92.50046 | 33900 ft | 501 kts | 311° |
| 2026-05-04 07:12 | 12.06423 | 92.29330 | 33911 ft | 495 kts | 311° |
| 2026-05-04 07:12 | 12.11117 | 92.24181 | 33879 ft | 494 kts | 310° |
| 2026-05-04 07:13 | 12.15797 | 92.19043 | 33870 ft | 493 kts | 310° |
| 2026-05-04 07:13 | 12.20465 | 92.13916 | 33868 ft | 493 kts | 310° |
| 2026-05-04 07:14 | 12.32116 | 92.01107 | 33872 ft | 494 kts | 310° |
| 2026-05-04 07:15 | 12.36795 | 91.95958 | 33879 ft | 495 kts | 310° |
| 2026-05-04 07:15 | 12.41495 | 91.90782 | 33884 ft | 496 kts | 311° |
| 2026-05-04 07:16 | 12.46207 | 91.85591 | 33875 ft | 498 kts | 310° |
| 2026-05-04 07:16 | 12.50931 | 91.80384 | 33890 ft | 500 kts | 310° |
| 2026-05-04 07:17 | 12.55665 | 91.75162 | 33903 ft | 501 kts | 310° |
| 2026-05-04 07:17 | 12.60411 | 91.69926 | 33907 ft | 501 kts | 310° |
| 2026-05-04 07:18 | 12.65155 | 91.64687 | 33910 ft | 501 kts | 310° |
| 2026-05-04 07:18 | 12.69895 | 91.59450 | 33905 ft | 501 kts | 310° |
| 2026-05-04 07:19 | 12.74629 | 91.54216 | 33897 ft | 501 kts | 310° |
| 2026-05-04 07:19 | 12.79358 | 91.48985 | 33891 ft | 500 kts | 310° |
| 2026-05-04 07:20 | 12.84049 | 91.43792 | 33890 ft | 500 kts | 310° |
| 2026-05-04 07:20 | 12.88770 | 91.38563 | 33887 ft | 499 kts | 310° |
| 2026-05-04 07:22 | 13.07623 | 91.17651 | 33882 ft | 499 kts | 310° |
| 2026-05-04 07:23 | 13.12301 | 91.12455 | 33878 ft | 499 kts | 310° |
| 2026-05-04 07:23 | 13.17019 | 91.07210 | 33873 ft | 500 kts | 310° |
| 2026-05-04 07:24 | 13.20972 | 91.02814 | 33884 ft | 500 kts | 310° |
| 2026-05-04 07:24 | 13.25692 | 90.97562 | 33888 ft | 501 kts | 310° |
| 2026-05-04 07:26 | 13.44566 | 90.76527 | 33891 ft | 501 kts | 310° |
| 2026-05-04 07:27 | 13.49287 | 90.71257 | 33879 ft | 501 kts | 310° |
| 2026-05-04 07:27 | 13.54006 | 90.65987 | 33895 ft | 501 kts | 310° |
| 2026-05-04 07:28 | 13.58716 | 90.60723 | 33886 ft | 500 kts | 310° |
| 2026-05-04 07:28 | 13.63422 | 90.55460 | 33881 ft | 500 kts | 310° |
| 2026-05-04 07:29 | 13.68123 | 90.50198 | 33877 ft | 499 kts | 310° |
| 2026-05-04 07:29 | 13.72819 | 90.44939 | 33873 ft | 499 kts | 310° |
| 2026-05-04 07:30 | 13.77510 | 90.39684 | 33872 ft | 499 kts | 310° |
| 2026-05-04 07:30 | 13.82176 | 90.34451 | 33857 ft | 500 kts | 310° |
| 2026-05-04 07:31 | 13.86878 | 90.29176 | 33874 ft | 500 kts | 310° |
| 2026-05-04 07:33 | 14.05699 | 90.08027 | 33885 ft | 500 kts | 310° |
| 2026-05-04 07:33 | 14.10397 | 90.02739 | 33882 ft | 500 kts | 310° |
| 2026-05-04 07:34 | 14.15090 | 89.97452 | 33863 ft | 500 kts | 310° |
| 2026-05-04 07:34 | 14.19790 | 89.92156 | 33864 ft | 500 kts | 310° |
| 2026-05-04 07:35 | 14.24483 | 89.86863 | 33883 ft | 500 kts | 310° |
| 2026-05-04 07:35 | 14.29171 | 89.81572 | 33881 ft | 499 kts | 310° |
| 2026-05-04 07:36 | 14.33853 | 89.76285 | 33878 ft | 499 kts | 310° |
| 2026-05-04 07:38 | 14.52502 | 89.55189 | 33871 ft | 498 kts | 310° |
| 2026-05-04 07:38 | 14.57171 | 89.49899 | 33869 ft | 498 kts | 310° |
| 2026-05-04 07:39 | 14.61835 | 89.44610 | 33877 ft | 498 kts | 310° |
| 2026-05-04 07:39 | 14.66492 | 89.39327 | 33879 ft | 497 kts | 310° |
| 2026-05-04 07:40 | 14.71152 | 89.34039 | 33876 ft | 497 kts | 310° |
| 2026-05-04 07:40 | 14.75841 | 89.28780 | 33873 ft | 497 kts | 312° |
| 2026-05-04 07:41 | 14.80646 | 89.23710 | 33872 ft | 497 kts | 313° |
| 2026-05-04 07:41 | 14.85494 | 89.18586 | 33869 ft | 497 kts | 312° |
| 2026-05-04 07:42 | 14.90312 | 89.13458 | 33868 ft | 497 kts | 312° |
| 2026-05-04 07:42 | 14.95138 | 89.08308 | 33876 ft | 497 kts | 312° |
| 2026-05-04 07:43 | 14.99951 | 89.03169 | 33880 ft | 497 kts | 312° |
| 2026-05-04 07:43 | 15.04760 | 88.98030 | 33870 ft | 496 kts | 312° |
| 2026-05-04 07:44 | 15.09555 | 88.92902 | 33869 ft | 496 kts | 312° |
| 2026-05-04 07:44 | 15.14323 | 88.87800 | 33868 ft | 495 kts | 312° |
| 2026-05-04 07:45 | 15.19117 | 88.82667 | 33867 ft | 495 kts | 312° |
| 2026-05-04 07:45 | 15.23904 | 88.77539 | 33863 ft | 495 kts | 312° |
| 2026-05-04 07:46 | 15.28694 | 88.72402 | 33864 ft | 495 kts | 312° |
| 2026-05-04 07:46 | 15.33481 | 88.67266 | 33863 ft | 496 kts | 312° |
| 2026-05-04 07:47 | 15.38264 | 88.62130 | 33863 ft | 496 kts | 312° |
| 2026-05-04 07:49 | 15.57390 | 88.41557 | 33862 ft | 496 kts | 312° |
| 2026-05-04 07:49 | 15.62183 | 88.36393 | 33861 ft | 496 kts | 312° |
| 2026-05-04 07:50 | 15.66969 | 88.31232 | 33866 ft | 496 kts | 312° |
| 2026-05-04 07:50 | 15.71753 | 88.26069 | 33866 ft | 496 kts | 312° |
| 2026-05-04 07:51 | 15.76538 | 88.20902 | 33860 ft | 495 kts | 312° |
| 2026-05-04 07:51 | 15.81288 | 88.15768 | 33858 ft | 495 kts | 312° |
| 2026-05-04 07:52 | 15.86059 | 88.10608 | 33857 ft | 495 kts | 312° |
| 2026-05-04 07:52 | 15.90809 | 88.05468 | 33847 ft | 496 kts | 311° |
| 2026-05-04 07:54 | 16.09931 | 87.84734 | 33860 ft | 497 kts | 311° |
| 2026-05-04 07:55 | 16.14682 | 87.79573 | 33862 ft | 497 kts | 311° |
| 2026-05-04 07:55 | 16.19471 | 87.74368 | 33862 ft | 498 kts | 311° |
| 2026-05-04 07:56 | 16.24257 | 87.69161 | 33853 ft | 498 kts | 311° |
| 2026-05-04 07:56 | 16.29048 | 87.63945 | 33851 ft | 498 kts | 311° |
| 2026-05-04 07:57 | 16.33812 | 87.58754 | 33856 ft | 499 kts | 311° |
| 2026-05-04 07:57 | 16.38605 | 87.53528 | 33861 ft | 499 kts | 311° |
| 2026-05-04 07:58 | 16.43403 | 87.48293 | 33860 ft | 499 kts | 311° |
| 2026-05-04 07:58 | 16.48167 | 87.43090 | 33861 ft | 499 kts | 311° |
| 2026-05-04 07:59 | 16.52954 | 87.37859 | 33861 ft | 499 kts | 311° |
| 2026-05-04 07:59 | 16.57743 | 87.32622 | 33859 ft | 499 kts | 311° |
| 2026-05-04 08:00 | 16.62518 | 87.27395 | 33856 ft | 498 kts | 311° |
| 2026-05-04 08:02 | 16.81705 | 87.06570 | 33854 ft | 497 kts | 312° |
| 2026-05-04 08:02 | 16.86538 | 87.01417 | 33851 ft | 497 kts | 312° |
| 2026-05-04 08:03 | 16.91364 | 86.96254 | 33849 ft | 496 kts | 312° |
| 2026-05-04 08:03 | 16.96191 | 86.91084 | 33842 ft | 497 kts | 312° |
| 2026-05-04 08:04 | 17.01020 | 86.85907 | 33847 ft | 497 kts | 312° |
| 2026-05-04 08:04 | 17.05841 | 86.80735 | 33858 ft | 497 kts | 312° |
| 2026-05-04 08:05 | 17.10657 | 86.75564 | 33857 ft | 496 kts | 312° |
| 2026-05-04 08:05 | 17.15472 | 86.70390 | 33856 ft | 496 kts | 312° |
| 2026-05-04 08:06 | 17.20284 | 86.65216 | 33847 ft | 496 kts | 312° |
| 2026-05-04 08:06 | 17.25059 | 86.60077 | 33848 ft | 495 kts | 312° |
| 2026-05-04 08:08 | 17.44256 | 86.39375 | 33851 ft | 494 kts | 311° |
| 2026-05-04 08:11 | 17.65721 | 86.16148 | 33820 ft | 493 kts | 311° |
| 2026-05-04 08:11 | 17.72875 | 86.08388 | 33828 ft | 494 kts | 311° |
| 2026-05-04 08:12 | 17.77650 | 86.03202 | 33836 ft | 494 kts | 311° |
| 2026-05-04 08:12 | 17.82427 | 85.98011 | 33835 ft | 494 kts | 311° |
| 2026-05-04 08:13 | 17.86424 | 85.93665 | 33853 ft | 494 kts | 311° |
| 2026-05-04 08:13 | 17.91165 | 85.88504 | 33852 ft | 494 kts | 311° |
| 2026-05-04 08:14 | 17.95936 | 85.83308 | 33841 ft | 494 kts | 311° |
| 2026-05-04 08:16 | 18.14984 | 85.62516 | 33829 ft | 493 kts | 311° |
| 2026-05-04 08:16 | 18.19734 | 85.57321 | 33828 ft | 493 kts | 311° |
| 2026-05-04 08:17 | 18.24452 | 85.52156 | 33830 ft | 493 kts | 311° |
| 2026-05-04 08:17 | 18.29203 | 85.46950 | 33830 ft | 493 kts | 310° |
| 2026-05-04 08:19 | 18.48197 | 85.26096 | 33834 ft | 494 kts | 310° |
| 2026-05-04 08:20 | 18.52949 | 85.20867 | 33836 ft | 494 kts | 310° |
| 2026-05-04 08:20 | 18.57697 | 85.15639 | 33835 ft | 494 kts | 310° |
| 2026-05-04 08:21 | 18.62408 | 85.10446 | 33826 ft | 493 kts | 310° |
| 2026-05-04 08:21 | 18.67150 | 85.05215 | 33823 ft | 493 kts | 310° |
| 2026-05-04 08:22 | 18.71896 | 84.99976 | 33818 ft | 494 kts | 310° |
| 2026-05-04 08:24 | 18.90891 | 84.79044 | 33817 ft | 494 kts | 310° |
| 2026-05-04 08:24 | 18.95631 | 84.73783 | 33820 ft | 494 kts | 310° |
| 2026-05-04 08:25 | 19.00371 | 84.68520 | 33817 ft | 495 kts | 310° |
| 2026-05-04 08:25 | 19.05114 | 84.63250 | 33833 ft | 495 kts | 310° |
| 2026-05-04 08:27 | 19.24016 | 84.42203 | 33830 ft | 492 kts | 310° |
| 2026-05-04 08:28 | 19.28725 | 84.36948 | 33826 ft | 492 kts | 310° |
| 2026-05-04 08:28 | 19.33438 | 84.31684 | 33836 ft | 492 kts | 310° |
| 2026-05-04 08:29 | 19.38138 | 84.26430 | 33840 ft | 492 kts | 310° |
| 2026-05-04 08:31 | 19.57204 | 84.05729 | 33839 ft | 492 kts | 311° |
| 2026-05-04 08:33 | 19.76419 | 83.84995 | 33846 ft | 494 kts | 311° |
| 2026-05-04 08:35 | 19.95638 | 83.64183 | 33812 ft | 493 kts | 311° |
| 2026-05-04 08:35 | 20.00432 | 83.58979 | 33819 ft | 493 kts | 311° |
| 2026-05-04 08:37 | 20.17265 | 83.40667 | 33799 ft | 495 kts | 311° |
| 2026-05-04 08:38 | 20.22050 | 83.35452 | 33782 ft | 495 kts | 311° |
| 2026-05-04 08:38 | 20.26863 | 83.30200 | 33797 ft | 495 kts | 311° |
| 2026-05-04 08:40 | 20.46113 | 83.09149 | 33798 ft | 496 kts | 310° |
| 2026-05-04 08:41 | 20.50922 | 83.03876 | 33780 ft | 496 kts | 310° |
| 2026-05-04 08:41 | 20.55729 | 82.98602 | 33798 ft | 496 kts | 310° |
| 2026-05-04 08:42 | 20.60534 | 82.93323 | 33792 ft | 495 kts | 310° |
| 2026-05-04 08:42 | 20.65325 | 82.88037 | 33790 ft | 495 kts | 310° |
| 2026-05-04 08:43 | 20.70122 | 82.82740 | 33786 ft | 496 kts | 310° |
| 2026-05-04 08:43 | 20.74915 | 82.77445 | 33782 ft | 495 kts | 310° |
| 2026-05-04 08:44 | 20.79619 | 82.72242 | 33776 ft | 495 kts | 310° |
| 2026-05-04 08:46 | 20.98671 | 82.51195 | 33797 ft | 496 kts | 309° |
| 2026-05-04 08:46 | 21.01113 | 82.48506 | 34006 ft | 498 kts | 309° |
| 2026-05-04 08:46 | 21.03497 | 82.45878 | 34470 ft | 496 kts | 310° |
| 2026-05-04 08:46 | 21.05894 | 82.43236 | 34777 ft | 493 kts | 310° |
| 2026-05-04 08:47 | 21.08276 | 82.40608 | 35000 ft | 492 kts | 310° |
| 2026-05-04 08:47 | 21.10660 | 82.37976 | 35234 ft | 491 kts | 310° |
| 2026-05-04 08:47 | 21.13036 | 82.35350 | 35461 ft | 491 kts | 310° |
| 2026-05-04 08:47 | 21.15413 | 82.32722 | 35697 ft | 490 kts | 310° |
| 2026-05-04 08:48 | 21.17780 | 82.30104 | 35783 ft | 488 kts | 310° |
| 2026-05-04 08:48 | 21.22505 | 82.24875 | 35787 ft | 488 kts | 310° |
| 2026-05-04 08:49 | 21.27220 | 82.19651 | 35776 ft | 488 kts | 310° |
| 2026-05-04 08:50 | 21.43625 | 82.01438 | 35776 ft | 486 kts | 310° |
| 2026-05-04 08:51 | 21.48356 | 81.96252 | 35770 ft | 487 kts | 311° |
| 2026-05-04 08:51 | 21.53167 | 81.91134 | 35772 ft | 487 kts | 311° |
| 2026-05-04 08:52 | 21.57973 | 81.85998 | 35775 ft | 486 kts | 311° |
| 2026-05-04 08:52 | 21.62766 | 81.80854 | 35774 ft | 486 kts | 310° |
| 2026-05-04 08:54 | 21.81794 | 81.60309 | 35758 ft | 485 kts | 310° |
| 2026-05-04 08:55 | 21.86479 | 81.55080 | 35759 ft | 485 kts | 309° |
| 2026-05-04 08:55 | 21.91166 | 81.49859 | 35763 ft | 485 kts | 310° |
| 2026-05-04 09:01 | 22.39384 | 80.95683 | 35816 ft | 483 kts | 309° |
| 2026-05-04 09:01 | 22.44047 | 80.90450 | 35805 ft | 483 kts | 309° |
| 2026-05-04 09:02 | 22.48707 | 80.85216 | 35821 ft | 482 kts | 309° |
| 2026-05-04 09:02 | 22.53356 | 80.79989 | 35818 ft | 482 kts | 309° |
| 2026-05-04 09:03 | 22.58003 | 80.74758 | 35818 ft | 482 kts | 309° |
| 2026-05-04 09:03 | 22.62644 | 80.69529 | 35813 ft | 482 kts | 309° |
| 2026-05-04 09:04 | 22.67286 | 80.64293 | 35811 ft | 482 kts | 309° |
| 2026-05-04 09:04 | 22.71901 | 80.59082 | 35810 ft | 482 kts | 309° |
| 2026-05-04 09:05 | 22.76548 | 80.53829 | 35817 ft | 482 kts | 309° |
| 2026-05-04 09:05 | 22.81192 | 80.48575 | 35815 ft | 482 kts | 309° |
| 2026-05-04 09:06 | 22.85845 | 80.43305 | 35809 ft | 483 kts | 309° |
| 2026-05-04 09:08 | 23.04365 | 80.22273 | 35806 ft | 483 kts | 309° |
| 2026-05-04 09:08 | 23.09007 | 80.16987 | 35805 ft | 483 kts | 309° |
| 2026-05-04 09:09 | 23.13646 | 80.11700 | 35811 ft | 484 kts | 308° |
| 2026-05-04 09:09 | 23.18129 | 80.06275 | 35807 ft | 479 kts | 302° |
| 2026-05-04 09:10 | 23.21758 | 80.00283 | 35804 ft | 473 kts | 296° |
| 2026-05-04 09:10 | 23.25140 | 79.94126 | 35802 ft | 473 kts | 296° |
| 2026-05-04 09:11 | 23.28501 | 79.88035 | 35800 ft | 473 kts | 296° |
| 2026-05-04 09:11 | 23.31884 | 79.81877 | 35796 ft | 473 kts | 296° |
| 2026-05-04 09:12 | 23.35258 | 79.75723 | 35806 ft | 473 kts | 296° |
| 2026-05-04 09:14 | 23.48704 | 79.51117 | 35803 ft | 472 kts | 296° |
| 2026-05-04 09:14 | 23.52030 | 79.45014 | 35795 ft | 471 kts | 296° |
| 2026-05-04 09:15 | 23.55371 | 79.38873 | 35815 ft | 470 kts | 296° |
| 2026-05-04 09:15 | 23.58696 | 79.32755 | 35807 ft | 469 kts | 296° |
| 2026-05-04 09:17 | 23.73552 | 79.05328 | 35815 ft | 466 kts | 296° |
| 2026-05-04 09:18 | 23.76842 | 78.99234 | 35806 ft | 466 kts | 296° |
| 2026-05-04 09:18 | 23.80129 | 78.93138 | 35799 ft | 465 kts | 295° |
| 2026-05-04 09:19 | 23.83381 | 78.87097 | 35796 ft | 465 kts | 295° |
| 2026-05-04 09:19 | 23.86657 | 78.81006 | 35782 ft | 465 kts | 295° |
| 2026-05-04 09:20 | 23.89927 | 78.74918 | 35780 ft | 465 kts | 295° |
| 2026-05-04 09:20 | 23.93195 | 78.68826 | 35782 ft | 465 kts | 295° |
| 2026-05-04 09:21 | 23.96467 | 78.62721 | 35797 ft | 465 kts | 295° |
| 2026-05-04 09:21 | 23.99738 | 78.56610 | 35777 ft | 465 kts | 295° |
| 2026-05-04 09:22 | 24.03028 | 78.50514 | 35777 ft | 466 kts | 296° |
| 2026-05-04 09:22 | 24.06375 | 78.44448 | 35776 ft | 466 kts | 296° |
| 2026-05-04 09:23 | 24.09715 | 78.38376 | 35761 ft | 465 kts | 296° |
| 2026-05-04 09:23 | 24.13050 | 78.32291 | 35761 ft | 465 kts | 296° |
| 2026-05-04 09:25 | 24.26312 | 78.08000 | 35774 ft | 465 kts | 296° |
| 2026-05-04 09:26 | 24.29626 | 78.01913 | 35770 ft | 464 kts | 296° |
| 2026-05-04 09:26 | 24.32936 | 77.95823 | 35769 ft | 464 kts | 296° |
| 2026-05-04 09:27 | 24.36236 | 77.89745 | 35760 ft | 464 kts | 296° |
| 2026-05-04 09:27 | 24.39534 | 77.83663 | 35762 ft | 463 kts | 296° |
| 2026-05-04 09:28 | 24.42802 | 77.77629 | 35768 ft | 463 kts | 296° |
| 2026-05-04 09:28 | 24.46094 | 77.71544 | 35769 ft | 463 kts | 296° |
| 2026-05-04 09:29 | 24.49381 | 77.65458 | 35758 ft | 463 kts | 296° |
| 2026-05-04 09:29 | 24.52668 | 77.59367 | 35783 ft | 464 kts | 296° |
| 2026-05-04 09:30 | 24.55955 | 77.53267 | 35770 ft | 464 kts | 296° |
| 2026-05-04 09:30 | 24.59248 | 77.47147 | 35773 ft | 465 kts | 296° |
| 2026-05-04 09:31 | 24.62517 | 77.41066 | 35775 ft | 465 kts | 296° |
| 2026-05-04 09:31 | 24.65830 | 77.34894 | 35771 ft | 466 kts | 296° |
| 2026-05-04 09:32 | 24.69090 | 77.28813 | 35772 ft | 466 kts | 296° |
| 2026-05-04 09:34 | 24.82482 | 77.04381 | 35778 ft | 465 kts | 297° |
| 2026-05-04 09:34 | 24.85812 | 76.98297 | 35773 ft | 464 kts | 297° |
| 2026-05-04 09:35 | 24.89140 | 76.92209 | 35769 ft | 464 kts | 297° |
| 2026-05-04 09:35 | 24.92468 | 76.86113 | 35772 ft | 463 kts | 297° |
| 2026-05-04 09:37 | 25.06788 | 76.62480 | 35775 ft | 467 kts | 303° |
| 2026-05-04 09:38 | 25.10735 | 76.56788 | 35774 ft | 467 kts | 303° |
| 2026-05-04 09:38 | 25.14680 | 76.51101 | 35774 ft | 467 kts | 303° |
| 2026-05-04 09:39 | 25.18628 | 76.45405 | 35782 ft | 467 kts | 303° |
| 2026-05-04 09:39 | 25.22545 | 76.39748 | 35779 ft | 466 kts | 303° |
| 2026-05-04 09:40 | 25.26503 | 76.34022 | 35772 ft | 466 kts | 303° |
| 2026-05-04 09:40 | 25.30407 | 76.28369 | 35769 ft | 465 kts | 303° |
| 2026-05-04 09:42 | 25.46026 | 76.05686 | 35776 ft | 461 kts | 303° |
| 2026-05-04 09:43 | 25.49897 | 76.00048 | 35772 ft | 460 kts | 303° |
| 2026-05-04 09:43 | 25.53729 | 75.94458 | 35764 ft | 459 kts | 303° |
| 2026-05-04 09:44 | 25.57585 | 75.88827 | 35786 ft | 458 kts | 303° |
| 2026-05-04 09:46 | 25.72951 | 75.66322 | 35776 ft | 457 kts | 304° |
| 2026-05-04 09:46 | 25.76140 | 75.61637 | 35772 ft | 456 kts | 304° |
| 2026-05-04 09:47 | 25.80585 | 75.55101 | 35772 ft | 456 kts | 304° |
| 2026-05-04 09:49 | 25.94810 | 75.33041 | 35819 ft | 471 kts | 302° |
| 2026-05-04 09:51 | 26.07648 | 75.11996 | 35835 ft | 470 kts | 302° |
| 2026-05-04 09:51 | 26.11326 | 75.05945 | 35807 ft | 474 kts | 301° |
| 2026-05-04 09:52 | 26.15017 | 74.99860 | 35831 ft | 475 kts | 301° |
| 2026-05-04 09:52 | 26.18536 | 74.93643 | 35837 ft | 473 kts | 296° |
| 2026-05-04 09:53 | 26.21706 | 74.87207 | 35828 ft | 474 kts | 296° |
| 2026-05-04 09:53 | 26.24877 | 74.80822 | 35826 ft | 474 kts | 296° |
| 2026-05-04 09:54 | 26.28051 | 74.74414 | 35806 ft | 474 kts | 296° |
| 2026-05-04 09:54 | 26.31229 | 74.67980 | 35795 ft | 473 kts | 296° |
| 2026-05-04 09:55 | 26.34401 | 74.61551 | 35817 ft | 472 kts | 296° |
| 2026-05-04 09:55 | 26.37558 | 74.55143 | 35814 ft | 470 kts | 296° |
| 2026-05-04 09:56 | 26.40695 | 74.48762 | 35787 ft | 468 kts | 296° |
| 2026-05-04 09:56 | 26.43806 | 74.42430 | 35759 ft | 461 kts | 296° |
| 2026-05-04 09:57 | 26.46899 | 74.36122 | 35760 ft | 466 kts | 296° |
| 2026-05-04 09:57 | 26.49998 | 74.29791 | 35746 ft | 463 kts | 296° |
| 2026-05-04 09:58 | 26.53086 | 74.23477 | 35750 ft | 464 kts | 296° |
| 2026-05-04 09:58 | 26.56178 | 74.17151 | 35738 ft | 464 kts | 296° |
| 2026-05-04 10:00 | 26.68665 | 73.91981 | 35759 ft | 461 kts | 297° |
| 2026-05-04 10:04 | 26.90086 | 73.48417 | 35685 ft | 454 kts | 297° |
| 2026-05-04 10:04 | 26.93122 | 73.42206 | 35681 ft | 454 kts | 297° |
| 2026-05-04 10:05 | 26.96158 | 73.35988 | 35669 ft | 454 kts | 297° |
| 2026-05-04 10:05 | 26.99162 | 73.29741 | 35658 ft | 455 kts | 297° |
| 2026-05-04 10:06 | 27.02154 | 73.23485 | 35683 ft | 455 kts | 297° |
| 2026-05-04 10:06 | 27.05149 | 73.17231 | 35693 ft | 455 kts | 297° |
| 2026-05-04 10:08 | 27.15562 | 72.95416 | 35665 ft | 452 kts | 297° |
| 2026-05-04 10:08 | 27.18518 | 72.89203 | 35659 ft | 450 kts | 297° |
| 2026-05-04 10:09 | 27.21460 | 72.83009 | 35644 ft | 449 kts | 297° |
| 2026-05-04 10:09 | 27.24397 | 72.76819 | 35633 ft | 448 kts | 297° |
| 2026-05-04 10:10 | 27.27328 | 72.70630 | 35624 ft | 448 kts | 297° |
| 2026-05-04 10:10 | 27.30251 | 72.64451 | 35613 ft | 447 kts | 297° |
| 2026-05-04 10:11 | 27.33168 | 72.58274 | 35611 ft | 446 kts | 298° |
| 2026-05-04 10:11 | 27.36054 | 72.52154 | 35611 ft | 445 kts | 298° |
| 2026-05-04 10:12 | 27.38953 | 72.45999 | 35605 ft | 445 kts | 298° |
| 2026-05-04 10:12 | 27.41846 | 72.39847 | 35603 ft | 445 kts | 298° |
| 2026-05-04 10:13 | 27.44742 | 72.33680 | 35600 ft | 445 kts | 298° |
| 2026-05-04 10:13 | 27.47633 | 72.27514 | 35600 ft | 445 kts | 298° |
| 2026-05-04 10:14 | 27.50500 | 72.21387 | 35650 ft | 444 kts | 298° |
| 2026-05-04 10:16 | 27.61954 | 71.96835 | 35608 ft | 441 kts | 298° |
| 2026-05-04 10:16 | 27.64801 | 71.90712 | 35588 ft | 440 kts | 298° |
| 2026-05-04 10:17 | 27.67636 | 71.84603 | 35612 ft | 439 kts | 298° |
| 2026-05-04 10:19 | 27.78880 | 71.60290 | 35599 ft | 438 kts | 298° |
| 2026-05-04 10:19 | 27.81699 | 71.54169 | 35597 ft | 438 kts | 298° |
| 2026-05-04 10:20 | 27.84505 | 71.48071 | 35614 ft | 437 kts | 298° |
| 2026-05-04 10:20 | 27.87303 | 71.41985 | 35606 ft | 436 kts | 298° |
| 2026-05-04 10:21 | 27.90000 | 71.35849 | 35602 ft | 435 kts | 297° |
| 2026-05-04 10:21 | 27.92654 | 71.29698 | 35599 ft | 435 kts | 297° |
| 2026-05-04 10:22 | 27.96656 | 71.20478 | 35601 ft | 435 kts | 297° |
| 2026-05-04 10:23 | 27.99309 | 71.14368 | 35593 ft | 436 kts | 297° |
| 2026-05-04 10:25 | 28.09966 | 70.89722 | 35614 ft | 436 kts | 297° |
| 2026-05-04 10:25 | 28.12627 | 70.83542 | 35633 ft | 435 kts | 297° |
| 2026-05-04 10:26 | 28.15275 | 70.77386 | 35658 ft | 434 kts | 297° |
| 2026-05-04 10:26 | 28.17917 | 70.71235 | 35633 ft | 434 kts | 297° |
| 2026-05-04 10:27 | 28.20553 | 70.65086 | 35635 ft | 433 kts | 297° |
| 2026-05-04 10:27 | 28.23182 | 70.58945 | 35618 ft | 433 kts | 297° |
| 2026-05-04 10:28 | 28.25806 | 70.52808 | 35607 ft | 432 kts | 297° |
| 2026-05-04 10:28 | 28.28408 | 70.46711 | 35628 ft | 431 kts | 297° |
| 2026-05-04 10:29 | 28.31015 | 70.40592 | 35614 ft | 431 kts | 297° |
| 2026-05-04 10:29 | 28.33732 | 70.34548 | 35614 ft | 429 kts | 304° |
| 2026-05-04 10:30 | 28.37658 | 70.29466 | 35625 ft | 431 kts | 319° |
| 2026-05-04 10:30 | 28.42776 | 70.25892 | 35625 ft | 438 kts | 333° |
| 2026-05-04 10:31 | 28.48636 | 70.23952 | 35629 ft | 444 kts | 341° |
| 2026-05-04 10:32 | 28.69644 | 70.18011 | 35658 ft | 444 kts | 341° |
| 2026-05-04 10:33 | 28.75642 | 70.16312 | 35661 ft | 444 kts | 341° |
| 2026-05-04 10:33 | 28.81638 | 70.14612 | 35659 ft | 443 kts | 341° |
| 2026-05-04 10:34 | 28.87585 | 70.12923 | 35656 ft | 443 kts | 341° |
| 2026-05-04 10:34 | 28.93576 | 70.11220 | 35665 ft | 443 kts | 341° |
| 2026-05-04 10:35 | 28.98556 | 70.09803 | 35660 ft | 443 kts | 341° |
| 2026-05-04 10:35 | 29.04514 | 70.08106 | 35663 ft | 442 kts | 341° |
| 2026-05-04 10:36 | 29.10490 | 70.06401 | 35678 ft | 442 kts | 341° |
| 2026-05-04 10:36 | 29.16452 | 70.04698 | 35693 ft | 442 kts | 341° |
| 2026-05-04 10:37 | 29.22423 | 70.02991 | 35693 ft | 442 kts | 341° |
| 2026-05-04 10:37 | 29.28397 | 70.01281 | 35694 ft | 442 kts | 341° |
| 2026-05-04 10:39 | 29.49249 | 69.95295 | 35705 ft | 443 kts | 341° |
| 2026-05-04 10:40 | 29.55269 | 69.93562 | 35700 ft | 443 kts | 341° |
| 2026-05-04 10:40 | 29.61219 | 69.91848 | 35711 ft | 443 kts | 341° |
| 2026-05-04 10:41 | 29.67196 | 69.90123 | 35736 ft | 444 kts | 341° |
| 2026-05-04 10:41 | 29.73190 | 69.88391 | 35760 ft | 444 kts | 341° |
| 2026-05-04 10:42 | 29.79188 | 69.86657 | 35754 ft | 444 kts | 341° |
| 2026-05-04 10:42 | 29.85175 | 69.84924 | 35778 ft | 443 kts | 341° |
| 2026-05-04 10:43 | 29.91140 | 69.83194 | 35768 ft | 441 kts | 341° |
| 2026-05-04 10:45 | 30.14952 | 69.76269 | 35763 ft | 442 kts | 341° |
| 2026-05-04 10:45 | 30.20929 | 69.74524 | 35751 ft | 443 kts | 341° |
| 2026-05-04 10:46 | 30.26924 | 69.72792 | 35765 ft | 444 kts | 342° |
| 2026-05-04 10:46 | 30.32996 | 69.71325 | 35758 ft | 446 kts | 343° |
| 2026-05-04 10:47 | 30.39091 | 69.69876 | 35774 ft | 447 kts | 343° |
| 2026-05-04 10:47 | 30.45186 | 69.68392 | 35796 ft | 447 kts | 343° |
| 2026-05-04 10:49 | 30.69472 | 69.62417 | 35763 ft | 448 kts | 343° |
| 2026-05-04 10:50 | 30.75586 | 69.60907 | 35765 ft | 449 kts | 343° |
| 2026-05-04 10:52 | 30.99778 | 69.54917 | 35777 ft | 450 kts | 343° |
| 2026-05-04 10:52 | 31.05904 | 69.53396 | 35780 ft | 450 kts | 343° |
| 2026-05-04 10:54 | 31.30222 | 69.47255 | 35768 ft | 444 kts | 338° |
| 2026-05-04 10:56 | 31.45752 | 69.31004 | 35743 ft | 434 kts | 309° |
| 2026-05-04 10:56 | 31.47632 | 69.28239 | 35742 ft | 433 kts | 309° |
| 2026-05-04 10:57 | 31.51381 | 69.22704 | 35749 ft | 434 kts | 308° |
| 2026-05-04 10:57 | 31.55123 | 69.17160 | 35779 ft | 433 kts | 308° |
| 2026-05-04 10:58 | 31.58845 | 69.11636 | 35796 ft | 434 kts | 308° |
| 2026-05-04 10:58 | 31.62590 | 69.06072 | 35806 ft | 435 kts | 309° |
| 2026-05-04 10:59 | 31.66330 | 69.00511 | 35774 ft | 435 kts | 308° |
| 2026-05-04 10:59 | 31.70165 | 68.95028 | 35785 ft | 434 kts | 310° |
| 2026-05-04 11:00 | 31.74081 | 68.89624 | 35789 ft | 434 kts | 310° |
| 2026-05-04 11:02 | 31.89578 | 68.67905 | 35816 ft | 432 kts | 310° |
| 2026-05-04 11:05 | 32.18384 | 68.27147 | 35847 ft | 432 kts | 309° |
| 2026-05-04 11:06 | 32.22200 | 68.21714 | 35841 ft | 432 kts | 309° |
| 2026-05-04 11:06 | 32.26031 | 68.16252 | 35857 ft | 431 kts | 309° |
| 2026-05-04 11:10 | 32.52821 | 67.77984 | 35793 ft | 433 kts | 311° |
| 2026-05-04 11:12 | 32.68872 | 67.56616 | 35797 ft | 436 kts | 311° |
| 2026-05-04 11:12 | 32.72897 | 67.51207 | 35808 ft | 437 kts | 311° |
| 2026-05-04 11:13 | 32.76914 | 67.45800 | 35816 ft | 438 kts | 311° |
| 2026-05-04 11:13 | 32.80857 | 67.40314 | 35811 ft | 439 kts | 309° |
| 2026-05-04 11:16 | 33.00231 | 67.12483 | 35899 ft | 434 kts | 309° |
| 2026-05-04 11:16 | 33.04076 | 67.06949 | 35882 ft | 433 kts | 309° |
| 2026-05-04 11:17 | 33.07911 | 67.01424 | 35913 ft | 433 kts | 309° |
| 2026-05-04 11:19 | 33.23264 | 66.79220 | 35917 ft | 433 kts | 309° |
| 2026-05-04 11:19 | 33.27069 | 66.73694 | 35915 ft | 433 kts | 309° |
| 2026-05-04 11:20 | 33.30892 | 66.68138 | 35892 ft | 432 kts | 309° |
| 2026-05-04 11:20 | 33.34710 | 66.62578 | 35889 ft | 433 kts | 309° |
| 2026-05-04 11:22 | 33.49984 | 66.40233 | 35859 ft | 434 kts | 309° |
| 2026-05-04 11:23 | 33.53155 | 66.35555 | 35853 ft | 435 kts | 309° |
| 2026-05-04 11:25 | 33.66523 | 66.15790 | 35901 ft | 435 kts | 309° |
| 2026-05-04 11:25 | 33.70325 | 66.10143 | 35893 ft | 435 kts | 309° |
| 2026-05-04 11:27 | 33.87417 | 65.84672 | 36573 ft | 435 kts | 309° |
| 2026-05-04 11:28 | 33.89315 | 65.81831 | 36818 ft | 434 kts | 309° |
| 2026-05-04 11:28 | 33.91205 | 65.79001 | 37081 ft | 433 kts | 309° |
| 2026-05-04 11:28 | 33.93083 | 65.76186 | 37327 ft | 430 kts | 308° |
| 2026-05-04 11:28 | 33.93712 | 65.75243 | 37422 ft | 430 kts | 308° |